Camp Lejeune, NC (28547)

9:03 AM EST on January 31, 2015 (GMT -0500)
Western Blvd | Change Station
CLOSE
Current Station
Personal Weather Station
Location: Jacksonville, NC
Elevation: 33 ft
Nearby Weather Stations

Elev 33 ft 34.76 °N, 77.38 °W | Updated 7 minutes ago

Clear
Clear
29.7 °F
Feels Like 24 °F
N
6.0
Wind Variable Wind from NNW
Gusts 10.0 mph

Today
High -- | Low -- °F
--% Chance of Precip.
Yesterday
High -- | Low -- °F
Precip. -- in
7:08 AM 5:37 PM
Waxing Gibbous, 90% visible
Pressure 30.37 in
Visibility 10.0 miles
Clouds Clear
Windchill 24 °F
Dew Point 16 °F
Humidity 55%
Rainfall -999.00 in
Snow Depth Not available.
UV 8.7 out of 12
Pollen 2.20 out of 12
Air Quality Not available.
Flu Activity Not available.
METAR KNCA 311356Z AUTO 34010KT 10SM CLR 00/M11 A3036 RMK AO2 SLP283 T00001111

More Conditions Fewer Conditions

Pressure 30.37 in
Visibility 10.0 miles
Clouds Clear
Windchill 24 °F
Dew Point 16 °F
Humidity 55%
Rainfall -999.00 in
Snow Depth Not available.
UV 8.7 out of 12
Pollen 2.20 out of 12
Air Quality Not available.
Flu Activity Not available.
METAR KNCA 311356Z AUTO 34010KT 10SM CLR 00/M11 A3036 RMK AO2 SLP283 T00001111

More Conditions Fewer Conditions

10-Day Weather Forecast

Almanac

Astronomy

Jan. 31, 2015 Rise Set
Actual Time
Civil Twilight
Nautical Twilight
Astronomical Twilight
Moon
Length of Visible Light
Length of Day
Tomorrow will be .
, % of the Moon is Illuminated

Today's Extremes

State Highs State Lows

Community

WunderPhotos

Upload Photos

1,792,058 photos uploaded!

WunderBlogs® & News

Nearby

Air Quality

  Air Quality AQ Index Pollutant
Not available.

Snow Depth

Station Depth Elevation

Earthquake Activity

City Distance Mag. Time & Date
Minimum magnitude displayed is 2.5.

Coastal Water Temperatures

Place Temperature

Nearby Weather Stations